Time;durP1;ratioP1;P1;durP2;ratioP2;P2;SDS_P1;SDS_P2;PMS_P1;PMS_P2;Temp;Humidity;BMP_temperature;BMP_pressure;BME280_temperature;BME280_humidity;BME280_pressure;Samples;Min_cycle;Max_cycle;Signal;HPM_P1;HPM_P2
2023/07/24 00:00:23;;;;;;;4.00;3.33;;;;;;;27.94;55.71;100756.25;5056698;28;68938;-43
2023/07/24 00:02:55;;;;;;;3.90;3.33;;;;;;;28.00;55.89;100760.81;5052602;28;66332;-42
2023/07/24 00:05:26;;;;;;;;;;;;;;;27.65;56.52;100768.16;5053530;28;69182;-42
2023/07/24 00:07:58;;;;;;;5.50;3.58;;;;;;;27.90;56.19;100750.44;5056959;28;66224;-43
2023/07/24 00:10:29;;;;;;;11.20;4.97;;;;;;;27.83;58.18;100725.31;5057139;28;70219;-42
2023/07/24 00:13:01;;;;;;;9.63;4.87;;;;;;;28.00;59.96;100753.59;5057746;28;66318;-41
2023/07/24 00:15:32;;;;;;;7.80;5.60;;;;;;;28.25;61.43;100786.22;5057927;28;69165;-42
2023/07/24 00:18:04;;;;;;;11.48;6.18;;;;;;;28.33;63.03;100776.25;5058958;28;65775;-43
2023/07/24 00:20:36;;;;;;;7.32;5.13;;;;;;;28.37;63.06;100777.50;5055827;28;70372;-42
2023/07/24 00:23:08;;;;;;;12.82;5.80;;;;;;;28.34;63.92;100762.56;5056357;28;66063;-42
2023/07/24 00:25:39;;;;;;;8.13;5.90;;;;;;;28.47;65.03;100773.41;5056411;28;70144;-42
2023/07/24 00:28:10;;;;;;;6.97;6.03;;;;;;;28.38;65.66;100753.00;5058080;28;65806;-44
2023/07/24 00:30:43;;;;;;;9.23;5.17;;;;;;;28.57;65.99;100785.66;5056076;28;70247;-43
2023/07/24 00:33:14;;;;;;;12.23;5.85;;;;;;;28.62;66.38;100770.50;5057037;28;65446;-45
2023/07/24 00:35:46;;;;;;;14.37;6.60;;;;;;;28.59;66.68;100770.91;5057528;28;70936;-44
2023/07/24 00:38:17;;;;;;;12.73;7.45;;;;;;;28.61;66.64;100774.25;5057379;28;66154;-43
2023/07/24 00:40:50;;;;;;;15.05;8.05;;;;;;;28.53;74.18;100766.34;5053501;28;70716;-41
2023/07/24 00:43:21;;;;;;;10.35;7.00;;;;;;;28.62;77.16;100781.28;5053122;28;65728;-44
2023/07/24 00:45:54;;;;;;;6.83;6.23;;;;;;;28.64;76.35;100789.16;5054931;28;70576;-44
2023/07/24 00:48:27;;;;;;;8.43;6.05;;;;;;;28.62;78.52;100793.97;5055878;28;66049;-43
2023/07/24 00:50:58;;;;;;;15.30;6.45;;;;;;;28.62;78.90;100793.97;5054241;28;70092;-45
2023/07/24 00:53:30;;;;;;;7.40;5.72;;;;;;;28.65;78.55;100793.53;5054187;28;65578;-42
2023/07/24 00:56:02;;;;;;;16.23;5.78;;;;;;;28.68;77.90;100796.66;5053644;28;69924;-42
2023/07/24 00:58:37;;;;;;;13.00;5.97;;;;;;;28.66;79.45;100782.53;5055391;28;65795;-42
2023/07/24 01:01:10;;;;;;;11.15;6.07;;;;;;;28.88;72.90;100796.63;5058051;28;71199;-41
2023/07/24 01:03:43;;;;;;;11.82;5.07;;;;;;;28.48;72.17;100725.66;5056868;28;65633;-41
2023/07/24 01:06:15;;;;;;;7.97;5.50;;;;;;;28.80;71.68;100769.84;5058040;28;70080;-42
2023/07/24 01:08:46;;;;;;;6.45;5.38;;;;;;;28.91;71.03;100777.31;5059309;28;65112;-44
2023/07/24 01:11:29;;;;;;;5.55;5.03;;;;;;;28.95;70.81;100781.28;5057344;28;70024;-41
2023/07/24 01:14:04;;;;;;;;;;;;;;;28.64;71.63;100789.16;5054398;28;65872;-41
2023/07/24 01:16:40;;;;;;;8.88;4.90;;;;;;;28.42;70.66;100689.56;5056742;28;69900;-42
2023/07/24 01:19:41;;;;;;;8.90;4.57;;;;;;;28.92;70.07;100792.50;5058887;28;65357;-41
2023/07/24 01:22:21;;;;;;;5.43;4.63;;;;;;;29.10;69.78;100799.16;5058177;28;70583;-44
2023/07/24 01:25:05;;;;;;;10.52;5.32;;;;;;;28.39;69.96;100689.94;5060583;28;65877;-41
2023/07/24 01:27:40;;;;;;;6.40;4.85;;;;;;;29.08;69.75;100782.31;5053864;28;70087;-42
2023/07/24 01:30:14;;;;;;;7.47;4.88;;;;;;;28.66;69.44;100706.13;5041538;28;65300;-41
2023/07/24 01:32:46;;;;;;;9.23;4.85;;;;;;;28.96;69.64;100750.53;5054739;28;69556;-43
2023/07/24 01:35:18;;;;;;;7.75;4.60;;;;;;;29.25;69.27;100794.31;5040748;28;66326;-41
2023/07/24 01:37:50;;;;;;;5.32;4.82;;;;;;;29.27;69.23;100796.81;5052887;28;70871;-43
2023/07/24 01:40:23;;;;;;;4.57;4.18;;;;;;;29.30;69.38;100804.50;5056342;28;65825;-41
2023/07/24 01:42:55;;;;;;;5.03;4.57;;;;;;;29.16;68.86;100782.09;5058646;28;69620;-42
2023/07/24 01:45:26;;;;;;;4.65;3.85;;;;;;;29.31;68.85;100801.59;5055794;28;66207;-41
2023/07/24 01:47:58;;;;;;;5.53;4.25;;;;;;;29.16;68.87;100774.81;5058535;28;71024;-42
2023/07/24 01:50:30;;;;;;;3.85;3.42;;;;;;;29.34;69.34;100803.88;5049610;28;66363;-44
2023/07/24 01:53:01;;;;;;;9.55;4.57;;;;;;;29.36;69.11;100809.91;5057364;28;70267;-40
2023/07/24 01:55:33;;;;;;;4.95;4.00;;;;;;;29.38;69.00;100810.50;5060663;28;66452;-41
2023/07/24 01:58:05;;;;;;;5.47;4.00;;;;;;;28.81;69.03;100708.63;5041735;28;68551;-42
2023/07/24 02:00:36;;;;;;;4.07;3.58;;;;;;;29.40;69.44;100807.59;5058462;28;66829;-43
2023/07/24 02:03:07;;;;;;;4.82;4.35;;;;;;;29.48;69.30;100809.25;5056544;28;71167;-42
2023/07/24 02:05:39;;;;;;;5.00;4.38;;;;;;;29.48;68.65;100811.97;5051395;28;65993;-40
2023/07/24 02:08:11;;;;;;;5.35;4.10;;;;;;;29.51;68.59;100811.53;5055509;28;69272;-42
2023/07/24 02:10:42;;;;;;;8.30;4.05;;;;;;;29.51;68.71;100804.25;5057271;28;66393;-43
2023/07/24 02:13:14;;;;;;;4.50;4.10;;;;;;;29.39;68.43;100793.28;5056212;28;70253;-42
2023/07/24 02:15:51;;;;;;;4.28;3.88;;;;;;;29.58;69.13;100810.44;5057716;28;65687;-43
2023/07/24 02:18:22;;;;;;;7.60;4.07;;;;;;;29.54;68.49;100801.13;5057599;28;70158;-41
2023/07/24 02:20:54;;;;;;;4.68;3.45;;;;;;;29.62;68.71;100808.16;5055628;28;65325;-41
2023/07/24 02:23:25;;;;;;;;;;;;;;;29.27;70.03;100810.34;5056869;28;70529;-40
2023/07/24 02:25:57;;;;;;;4.15;3.75;;;;;;;29.60;68.39;100804.84;5056895;28;66738;-41
2023/07/24 02:28:28;;;;;;;4.53;4.13;;;;;;;29.67;68.44;100802.13;5056846;28;70581;-42
2023/07/24 02:31:00;;;;;;;4.28;3.60;;;;;;;29.71;68.66;100801.50;5050688;28;66150;-41
2023/07/24 02:33:31;;;;;;;3.97;3.67;;;;;;;29.73;68.68;100807.53;5038316;28;70174;-41
2023/07/24 02:36:03;;;;;;;5.45;4.05;;;;;;;29.76;68.59;100792.75;5055710;28;66419;-41
2023/07/24 02:38:36;;;;;;;4.50;4.20;;;;;;;29.73;68.46;100776.97;5057320;28;70186;-40
2023/07/24 02:41:09;;;;;;;4.18;3.83;;;;;;;29.77;68.12;100773.59;5054417;28;66047;-40
2023/07/24 02:43:40;;;;;;;4.17;3.77;;;;;;;29.82;68.82;100787.31;5057117;28;68993;-40
2023/07/24 02:46:12;;;;;;;4.38;3.72;;;;;;;29.84;68.42;100790.63;5049455;28;66293;-40
2023/07/24 02:48:44;;;;;;;4.32;3.92;;;;;;;29.82;68.32;100776.50;5056173;28;70847;-40
2023/07/24 02:51:15;;;;;;;;;;;;;;;29.56;69.79;100787.38;5055132;28;66574;-41
2023/07/24 02:53:47;;;;;;;3.80;3.50;;;;;;;29.91;68.83;100778.94;5059093;28;70250;-42
2023/07/24 02:56:22;;;;;;;4.10;3.70;;;;;;;29.96;68.24;100792.66;5055904;28;66379;-40
2023/07/24 02:58:53;;;;;;;4.35;3.90;;;;;;;29.97;68.42;100780.78;5061380;28;70667;-43
2023/07/24 03:01:25;;;;;;;5.22;4.28;;;;;;;29.92;68.59;100769.78;5061532;28;66082;-42
2023/07/24 03:03:56;;;;;;;4.47;4.07;;;;;;;29.94;68.48;100746.06;5059019;28;70471;-41
2023/07/24 03:06:28;;;;;;;6.72;3.97;;;;;;;29.99;69.04;100755.19;5060509;28;66014;-40
2023/07/24 03:09:00;;;;;;;7.40;4.00;;;;;;;30.06;68.46;100757.81;5057436;28;70103;-42
2023/07/24 03:11:32;;;;;;;5.22;3.67;;;;;;;30.12;68.77;100753.44;5059934;28;65991;-42
2023/07/24 03:14:04;;;;;;;4.18;3.72;;;;;;;30.03;68.55;100744.75;5053264;28;69985;-41
2023/07/24 03:16:36;;;;;;;7.40;4.07;;;;;;;29.84;68.58;100708.69;5060169;28;66000;-40
2023/07/24 03:19:07;;;;;;;4.03;3.72;;;;;;;30.19;68.17;100751.50;5059440;28;69841;-41
2023/07/24 03:21:39;;;;;;;6.65;4.75;;;;;;;30.21;68.21;100758.38;5058550;28;65542;-40
2023/07/24 03:24:10;;;;;;;4.23;3.83;;;;;;;30.19;68.60;100746.94;5052771;28;70342;-42
2023/07/24 03:26:42;;;;;;;4.07;3.65;;;;;;;30.25;68.14;100751.50;5053403;28;66260;-41
2023/07/24 03:29:13;;;;;;;5.40;4.03;;;;;;;29.93;68.74;100693.84;5058765;28;69997;-40
2023/07/24 03:31:44;;;;;;;5.70;4.20;;;;;;;30.32;68.50;100747.94;5055778;28;65281;-41
2023/07/24 03:34:16;;;;;;;5.97;4.10;;;;;;;30.16;68.31;100727.59;5058062;28;69329;-42
2023/07/24 03:36:47;;;;;;;3.70;3.40;;;;;;;30.35;68.48;100751.00;5059395;28;66431;-43
2023/07/24 03:39:19;;;;;;;6.82;4.55;;;;;;;30.06;68.71;100706.44;5050728;28;70205;-41
2023/07/24 03:41:50;;;;;;;4.65;4.13;;;;;;;30.41;68.82;100757.44;5060946;28;65117;-42
2023/07/24 03:44:22;;;;;;;6.18;4.50;;;;;;;30.01;68.68;100717.94;5050035;28;68835;-40
2023/07/24 03:46:53;;;;;;;5.25;4.32;;;;;;;30.45;68.90;100801.94;5058177;28;65547;-41
2023/07/24 03:49:24;;;;;;;7.05;3.67;;;;;;;30.45;68.75;100824.44;5057284;28;69637;-40
2023/07/24 03:51:56;;;;;;;7.43;3.42;;;;;;;30.47;68.74;100816.91;5059531;28;65874;-41
2023/07/24 03:54:28;;;;;;;5.33;3.00;;;;;;;30.48;69.18;100806.94;5058653;28;70478;-41
2023/07/24 03:56:59;;;;;;;4.88;2.75;;;;;;;30.47;69.13;100802.56;5050498;28;65439;-42
2023/07/24 03:59:31;;;;;;;6.57;3.22;;;;;;;30.47;69.26;100802.56;5053712;28;70172;-41
2023/07/24 04:02:03;;;;;;;4.70;2.63;;;;;;;30.49;69.59;100798.56;5048783;28;66460;-42
2023/07/24 04:04:37;;;;;;;3.67;2.60;;;;;;;30.50;68.99;100794.00;5053097;28;69581;-40
2023/07/24 04:07:08;;;;;;;;;;;;;;;30.16;71.64;100793.34;5055754;28;66745;-41
2023/07/24 04:09:39;;;;;;;4.35;2.95;;;;;;;30.46;69.08;100787.38;5046866;28;70331;-41
2023/07/24 04:12:10;;;;;;;9.02;2.95;;;;;;;30.45;69.74;100780.28;5050529;28;66224;-41
2023/07/24 04:14:41;;;;;;;5.18;3.25;;;;;;;30.44;69.14;100779.47;5052605;28;70067;-41
2023/07/24 04:17:13;;;;;;;5.57;2.92;;;;;;;30.42;69.55;100772.59;5056022;28;65513;-42
2023/07/24 04:19:44;;;;;;;3.47;3.00;;;;;;;30.48;69.23;100771.75;5056228;28;70121;-41
2023/07/24 04:22:16;;;;;;;4.13;3.38;;;;;;;30.46;69.58;100763.00;5057443;28;65523;-45
2023/07/24 04:24:47;;;;;;;4.05;2.97;;;;;;;30.47;69.45;100767.38;5047758;28;69126;-42
2023/07/24 04:27:19;;;;;;;3.22;2.90;;;;;;;30.47;69.55;100757.34;5057149;28;66362;-42
2023/07/24 04:29:50;;;;;;;4.15;3.30;;;;;;;30.38;69.75;100736.22;5049402;28;70272;-41
2023/07/24 04:32:22;;;;;;;10.13;2.85;;;;;;;30.42;69.55;100742.84;5054872;28;66252;-44
2023/07/24 04:34:53;;;;;;;4.78;2.78;;;;;;;30.47;69.37;100740.28;5055449;28;70014;-42
2023/07/24 04:37:25;;;;;;;4.93;3.00;;;;;;;30.48;69.25;100737.38;5059212;28;65645;-42
2023/07/24 04:39:56;;;;;;;5.18;2.90;;;;;;;30.47;69.37;100729.47;5053624;28;69437;-41
2023/07/24 04:42:28;;;;;;;2.90;2.60;;;;;;;30.49;69.40;100738.22;5058589;28;65725;-42
2023/07/24 04:44:59;;;;;;;4.03;2.67;;;;;;;30.52;69.52;100748.59;5056821;28;68937;-41
2023/07/24 04:47:31;;;;;;;;;;;;;;;30.19;71.61;100737.97;5054410;28;66955;-41
2023/07/24 04:50:02;;;;;;;3.03;2.72;;;;;;;30.49;69.40;100744.44;5059570;28;70764;-42
2023/07/24 04:52:34;;;;;;;4.05;3.10;;;;;;;30.47;68.99;100724.88;5059983;28;66195;-40
2023/07/24 04:55:06;;;;;;;2.95;2.53;;;;;;;30.45;68.88;100716.19;5051575;28;69540;-41
2023/07/24 04:57:38;;;;;;;5.82;2.88;;;;;;;30.35;69.22;100690.66;5045846;28;66628;-41
2023/07/24 05:00:10;;;;;;;3.50;3.00;;;;;;;30.57;69.25;100735.22;5059537;28;69865;-41
2023/07/24 05:02:41;;;;;;;3.75;2.30;;;;;;;30.55;69.01;100723.78;5048481;28;66653;-41
2023/07/24 05:05:13;;;;;;;4.53;2.63;;;;;;;30.59;68.73;100724.16;5060350;28;69809;-42
2023/07/24 05:07:44;;;;;;;3.92;2.70;;;;;;;30.55;68.87;100712.13;5048603;28;66358;-41
2023/07/24 05:10:17;;;;;;;4.10;2.65;;;;;;;30.60;69.37;100710.41;5047919;28;69398;-42
2023/07/24 05:12:49;;;;;;;2.70;2.45;;;;;;;30.63;68.63;100711.84;5049267;28;66536;-41
2023/07/24 05:15:21;;;;;;;5.22;2.40;;;;;;;30.57;69.05;100691.91;5055388;28;70198;-42
2023/07/24 05:17:53;;;;;;;4.38;2.60;;;;;;;30.42;69.29;100658.94;5049550;28;65628;-41
2023/07/24 05:20:24;;;;;;;2.95;2.38;;;;;;;30.64;68.61;100695.38;5052905;28;70174;-42
2023/07/24 05:22:55;;;;;;;5.30;2.63;;;;;;;30.63;69.20;100684.78;5044203;28;66629;-42
2023/07/24 05:25:27;;;;;;;2.50;2.03;;;;;;;30.64;68.75;100673.69;5050305;28;69500;-41
2023/07/24 05:27:58;;;;;;;5.10;2.40;;;;;;;30.67;68.92;100681.41;5047100;28;66342;-42
2023/07/24 05:30:30;;;;;;;2.40;2.10;;;;;;;30.67;68.96;100676.00;5052399;28;69235;-42
2023/07/24 05:33:01;;;;;;;4.18;2.25;;;;;;;30.63;68.98;100658.53;5054288;28;66111;-40
2023/07/24 05:35:33;;;;;;;3.55;2.80;;;;;;;30.65;68.93;100648.31;5047533;28;70056;-41
2023/07/24 05:38:04;;;;;;;3.17;2.78;;;;;;;30.67;68.88;100648.91;5055614;28;66381;-41
2023/07/24 05:40:36;;;;;;;2.95;2.35;;;;;;;30.69;68.79;100646.78;5052464;28;69051;-41
2023/07/24 05:43:07;;;;;;;4.45;2.50;;;;;;;30.71;69.07;100655.53;5051367;28;65634;-40
2023/07/24 05:45:39;;;;;;;3.45;2.50;;;;;;;30.76;68.57;100646.75;5052577;28;69250;-42
2023/07/24 05:48:11;;;;;;;2.88;2.25;;;;;;;30.75;68.62;100628.00;5057542;28;66449;-42
2023/07/24 05:50:43;;;;;;;6.30;2.63;;;;;;;30.76;69.00;100640.47;5066929;28;70319;-41
2023/07/24 05:53:16;;;;;;;3.88;2.33;;;;;;;30.22;68.47;100543.59;5067737;28;66355;-42
2023/07/24 05:55:55;;;;;;;3.55;2.42;;;;;;;30.42;68.74;100575.88;5059476;28;70271;-41
2023/07/24 05:58:27;;;;;;;4.35;2.70;;;;;;;30.82;68.72;100634.22;5060185;28;65497;-43
2023/07/24 06:00:59;;;;;;;3.90;2.53;;;;;;;30.76;68.72;100624.22;5062246;28;70766;-41
2023/07/24 06:03:31;;;;;;;5.90;2.67;;;;;;;30.82;68.77;100634.22;5053172;28;66696;-41
2023/07/24 06:06:03;;;;;;;2.60;2.38;;;;;;;30.84;68.70;100629.38;5041559;28;69342;-40
2023/07/24 06:08:34;;;;;;;4.22;2.60;;;;;;;30.85;68.61;100639.16;5058556;28;66725;-42
2023/07/24 06:11:06;;;;;;;4.78;2.03;;;;;;;30.80;69.02;100628.19;5045781;28;69764;-41
2023/07/24 06:13:37;;;;;;;3.92;2.47;;;;;;;30.87;68.69;100642.44;5059420;28;66203;-43
2023/07/24 06:16:08;;;;;;;4.53;2.50;;;;;;;30.85;68.46;100640.00;5055052;28;70321;-43
2023/07/24 06:18:40;;;;;;;3.55;2.30;;;;;;;30.87;68.67;100628.91;5057837;28;66369;-41
2023/07/24 06:21:12;;;;;;;4.05;2.70;;;;;;;30.87;68.85;100637.03;5054562;28;70029;-42
2023/07/24 06:23:43;;;;;;;4.53;2.95;;;;;;;30.87;68.65;100623.50;5056104;28;65167;-41
2023/07/24 06:26:14;;;;;;;2.65;2.42;;;;;;;30.76;69.11;100607.97;5058328;28;69231;-41
2023/07/24 06:28:46;;;;;;;5.30;2.72;;;;;;;30.89;69.00;100629.53;5058911;28;66033;-42
2023/07/24 06:31:17;;;;;;;3.63;2.53;;;;;;;30.90;68.79;100634.72;5057752;28;69947;-40
2023/07/24 06:33:49;;;;;;;6.60;2.35;;;;;;;30.87;68.70;100621.66;5055324;28;65970;-41
2023/07/24 06:36:26;;;;;;;2.90;2.10;;;;;;;30.80;68.88;100603.81;5054305;28;70087;-41
2023/07/24 06:38:59;;;;;;;3.55;2.47;;;;;;;30.92;68.76;100612.81;5056120;28;66629;-43
2023/07/24 06:41:30;;;;;;;4.07;2.38;;;;;;;30.89;68.93;100616.81;5060361;28;68978;-42
2023/07/24 06:44:01;;;;;;;3.25;2.38;;;;;;;30.85;68.73;100598.53;5056586;28;66234;-43
2023/07/24 06:46:33;;;;;;;5.38;2.72;;;;;;;30.79;68.44;100591.31;5052375;28;69499;-43
2023/07/24 06:49:04;;;;;;;8.20;2.50;;;;;;;30.94;68.62;100610.72;5048906;28;66368;-40
2023/07/24 06:51:37;;;;;;;5.25;2.80;;;;;;;30.30;68.67;100498.38;5044545;28;70208;-41
2023/07/24 06:54:08;;;;;;;5.90;2.33;;;;;;;30.91;68.53;100581.38;5055958;28;66303;-41
2023/07/24 06:56:40;;;;;;;6.53;2.92;;;;;;;30.93;68.28;100587.41;5050050;28;69129;-41
2023/07/24 06:59:11;;;;;;;8.25;2.30;;;;;;;30.99;68.41;100586.50;5058795;28;65812;-41
2023/07/24 07:01:43;;;;;;;5.25;2.78;;;;;;;30.99;68.62;100585.66;5052616;28;70077;-41
2023/07/24 07:04:14;;;;;;;;;;;;;;;30.66;69.84;100587.69;5058593;28;66122;-41
2023/07/24 07:06:45;;;;;;;5.53;2.30;;;;;;;30.94;68.52;100581.75;5058366;28;70320;-40
2023/07/24 07:09:18;;;;;;;5.25;2.60;;;;;;;31.02;68.41;100594.16;5056139;28;66353;-41
2023/07/24 07:11:49;;;;;;;3.25;2.40;;;;;;;31.02;68.63;100596.88;5058950;28;69954;-42
2023/07/24 07:14:21;;;;;;;2.58;1.77;;;;;;;31.03;68.73;100587.66;5038202;28;66440;-42
2023/07/24 07:16:52;;;;;;;3.47;2.45;;;;;;;30.99;68.43;100566.72;5060119;28;69215;-41
2023/07/24 07:19:24;;;;;;;3.38;2.10;;;;;;;30.99;68.59;100566.72;5056417;28;66223;-41
2023/07/24 07:21:55;;;;;;;4.65;2.50;;;;;;;31.01;68.41;100568.13;5060737;28;70075;-40
2023/07/24 07:24:27;;;;;;;6.47;2.60;;;;;;;31.06;68.31;100579.09;5060266;28;66121;-41
2023/07/24 07:26:58;;;;;;;5.30;2.70;;;;;;;30.96;68.62;100573.41;5061473;28;70105;-42
2023/07/24 07:29:31;;;;;;;3.78;2.50;;;;;;;31.06;68.42;100591.81;5060306;28;66405;-40
2023/07/24 07:32:02;;;;;;;5.80;1.95;;;;;;;31.04;68.21;100583.09;5059666;28;70493;-42
2023/07/24 07:34:35;;;;;;;6.03;2.53;;;;;;;31.04;68.38;100578.50;5055397;28;65563;-40
2023/07/24 07:37:07;;;;;;;4.70;2.10;;;;;;;31.08;68.22;100589.72;5056631;28;70408;-41
2023/07/24 07:39:38;;;;;;;3.63;2.20;;;;;;;30.57;68.42;100507.00;5056293;28;66306;-42
2023/07/24 07:42:10;;;;;;;3.10;2.25;;;;;;;31.06;68.11;100581.78;5061243;28;69141;-42
2023/07/24 07:44:47;;;;;;;3.17;1.95;;;;;;;31.05;68.35;100592.88;5057936;28;65803;-40
2023/07/24 07:47:19;;;;;;;2.75;1.80;;;;;;;31.04;68.31;100573.09;5066959;28;68947;-42
2023/07/24 07:49:50;;;;;;;2.72;2.05;;;;;;;30.99;68.13;100564.81;5058095;28;65978;-41
2023/07/24 07:52:22;;;;;;;1.88;1.65;;;;;;;31.02;68.70;100569.78;5054503;28;70000;-41
2023/07/24 07:54:54;;;;;;;2.50;1.58;;;;;;;30.63;68.39;100496.09;5047185;28;66601;-41
2023/07/24 07:57:29;;;;;;;4.13;2.13;;;;;;;31.02;68.70;100556.22;5054420;28;69948;-41
2023/07/24 08:00:00;;;;;;;3.88;1.88;;;;;;;30.91;68.66;100543.47;5045178;28;66385;-40
2023/07/24 08:02:34;;;;;;;3.20;2.15;;;;;;;31.03;68.36;100552.44;5053189;28;70661;-40
2023/07/24 08:05:07;;;;;;;3.53;2.60;;;;;;;31.02;68.24;100550.81;5049318;28;65578;-41
2023/07/24 08:07:51;;;;;;;2.95;2.33;;;;;;;31.02;68.24;100553.53;5054169;28;70436;-42
2023/07/24 08:10:26;;;;;;;8.07;2.50;;;;;;;30.90;68.81;100539.13;5053926;28;66426;-41
2023/07/24 08:12:58;;;;;;;5.22;2.33;;;;;;;30.97;68.39;100556.09;5057798;28;70058;-41
2023/07/24 08:15:29;;;;;;;5.57;2.67;;;;;;;30.96;68.63;100549.03;5054152;28;66326;-42
2023/07/24 08:18:01;;;;;;;3.10;2.15;;;;;;;30.80;68.70;100528.00;5053621;28;69230;-41
2023/07/24 08:20:36;;;;;;;4.35;2.40;;;;;;;30.84;68.65;100529.16;5055992;28;65624;-40
2023/07/24 08:23:08;;;;;;;7.22;2.83;;;;;;;30.95;68.96;100547.34;5058899;28;69508;-41
2023/07/24 08:25:39;;;;;;;3.88;2.42;;;;;;;30.92;68.68;100542.41;5055888;28;65922;-43
2023/07/24 08:28:11;;;;;;;3.55;2.42;;;;;;;30.91;68.67;100535.34;5059626;28;70158;-42
2023/07/24 08:30:42;;;;;;;7.25;2.50;;;;;;;30.86;68.79;100527.06;5056796;28;65232;-42
2023/07/24 08:33:14;;;;;;;3.13;2.70;;;;;;;30.84;68.88;100516.47;5058433;28;70065;-41
2023/07/24 08:35:46;;;;;;;3.25;2.92;;;;;;;30.78;69.06;100505.69;5059111;28;65897;-43
2023/07/24 08:38:17;;;;;;;9.98;2.25;;;;;;;30.87;69.24;100512.47;5059007;28;70449;-41
2023/07/24 08:41:06;;;;;;;3.03;2.50;;;;;;;30.85;69.32;100523.53;5058133;28;66089;-43
2023/07/24 08:43:40;;;;;;;6.20;3.30;;;;;;;30.43;69.18;100452.22;5045809;28;70181;-40
2023/07/24 08:46:12;;;;;;;3.50;2.40;;;;;;;30.89;68.91;100505.75;5051107;28;66449;-41
2023/07/24 08:48:43;;;;;;;15.13;3.10;;;;;;;30.83;69.64;100505.88;5052000;28;70366;-40
2023/07/24 08:51:16;;;;;;;4.60;2.70;;;;;;;30.26;68.64;100406.00;5053776;28;65772;-41
2023/07/24 08:53:48;;;;;;;3.33;2.53;;;;;;;30.84;68.67;100502.09;5056911;28;70481;-42
2023/07/24 08:56:20;;;;;;;9.93;3.42;;;;;;;30.87;69.21;100512.47;5054697;28;66632;-40
2023/07/24 08:58:53;;;;;;;5.03;3.60;;;;;;;30.86;69.03;100510.81;5056548;28;70305;-40
2023/07/24 09:01:24;;;;;;;;;;;;;;;30.50;71.09;100505.19;5060764;28;66877;-41
2023/07/24 09:03:57;;;;;;;7.87;3.87;;;;;;;30.33;69.33;100441.09;5060436;28;70258;-40
2023/07/24 09:06:29;;;;;;;3.83;3.05;;;;;;;30.38;69.22;100422.31;5048171;28;66401;-41
2023/07/24 09:09:02;;;;;;;4.30;2.88;;;;;;;30.71;68.90;100481.41;5047341;28;70450;-41
2023/07/24 09:11:46;;;;;;;3.90;3.28;;;;;;;30.21;69.53;100417.47;5052768;28;65983;-41
2023/07/24 09:14:22;;;;;;;6.00;3.97;;;;;;;30.82;69.47;100493.38;5058708;28;69813;-42
2023/07/24 09:17:10;;;;;;;6.32;3.75;;;;;;;30.07;69.90;100388.94;5051464;28;65614;-40
2023/07/24 09:19:43;;;;;;;7.43;3.88;;;;;;;30.34;69.74;100421.94;5059185;28;69594;-41
2023/07/24 09:22:16;;;;;;;6.32;3.88;;;;;;;30.75;69.45;100477.19;5060005;28;65985;-42
2023/07/24 09:24:56;;;;;;;4.82;3.30;;;;;;;30.32;69.82;100420.50;5050694;28;69903;-41
2023/07/24 09:27:29;;;;;;;4.10;3.70;;;;;;;30.80;69.36;100493.59;5050382;28;66887;-41
2023/07/24 09:30:02;;;;;;;6.07;4.68;;;;;;;30.66;69.03;100463.16;5048821;28;70777;-42
2023/07/24 09:32:34;;;;;;;7.25;4.18;;;;;;;30.71;69.45;100479.53;5055643;28;66545;-42
2023/07/24 09:35:16;;;;;;;10.18;4.63;;;;;;;30.72;69.79;100483.88;5048489;28;69903;-41
2023/07/24 09:37:47;;;;;;;;;;;;;;;30.42;71.41;100501.97;5054388;28;66303;-41
2023/07/24 09:40:19;;;;;;;3.60;3.30;;;;;;;30.72;69.72;100494.72;5060097;28;71517;-43
2023/07/24 09:42:50;;;;;;;4.15;3.75;;;;;;;30.75;69.78;100503.44;5048079;28;67242;-41
2023/07/24 09:45:45;;;;;;;4.22;3.60;;;;;;;30.75;69.90;100511.56;5051021;28;70638;-40
2023/07/24 09:48:19;;;;;;;4.75;3.85;;;;;;;30.78;69.81;100509.22;5054452;28;65943;-43
2023/07/24 09:50:58;;;;;;;8.93;4.15;;;;;;;30.06;69.74;100395.38;5041027;28;69962;-42
2023/07/24 09:54:14;;;;;;;5.22;4.10;;;;;;;30.54;70.43;100513.72;5043970;28;66316;-41
2023/07/24 09:56:47;;;;;;;5.75;4.00;;;;;;;30.59;69.81;100494.06;4993981;28;68791;-41
2023/07/24 09:59:29;;;;;;;6.90;4.20;;;;;;;30.75;69.78;100519.69;4994715;28;66095;-43
2023/07/24 10:02:02;;;;;;;6.20;3.92;;;;;;;30.73;69.65;100523.47;5030370;28;69618;-41
2023/07/24 10:04:37;;;;;;;10.55;4.43;;;;;;;30.64;70.14;100507.75;5051373;28;66642;-42
2023/07/24 10:07:10;;;;;;;6.32;4.07;;;;;;;30.73;69.98;100528.06;5053363;28;70289;-41
2023/07/24 10:09:46;;;;;;;7.25;3.78;;;;;;;30.27;69.75;100454.47;5054318;28;66725;-41
2023/07/24 10:12:21;;;;;;;15.43;3.80;;;;;;;30.46;71.34;100516.72;5053189;28;70663;-41
2023/07/24 10:14:53;;;;;;;5.00;4.10;;;;;;;30.02;73.19;100467.22;5054476;28;66821;-40
2023/07/24 10:17:41;;;;;;;8.45;5.50;;;;;;;30.32;74.20;100531.44;5056291;28;70474;-42
2023/07/24 10:20:13;;;;;;;5.97;4.68;;;;;;;30.35;74.52;100541.81;5057030;28;67073;-41
2023/07/24 10:22:44;;;;;;;;;;;;;;;30.09;76.24;100538.31;5058037;28;70481;-41
2023/07/24 10:25:15;;;;;;;6.18;4.75;;;;;;;30.25;75.50;100535.03;5054811;28;66086;-43
2023/07/24 10:27:49;;;;;;;7.22;5.22;;;;;;;30.26;76.22;100533.19;5053522;28;70142;-41
2023/07/24 10:30:29;;;;;;;14.70;5.25;;;;;;;30.28;75.92;100548.13;5056391;28;66641;-40
2023/07/24 10:33:18;;;;;;;5.65;4.60;;;;;;;29.91;76.41;100489.59;5057126;28;70686;-41
2023/07/24 10:36:04;;;;;;;10.95;5.40;;;;;;;30.31;76.50;100541.41;5057531;28;66558;-41
2023/07/24 10:38:38;;;;;;;8.60;5.15;;;;;;;30.32;76.49;100542.28;5055603;28;70794;-42
2023/07/24 10:41:11;;;;;;;7.90;5.07;;;;;;;29.68;77.04;100445.09;5038457;28;66442;-43
2023/07/24 10:43:42;;;;;;;8.48;5.18;;;;;;;30.32;77.15;100553.09;5055896;28;70762;-41
2023/07/24 10:46:19;;;;;;;7.82;4.40;;;;;;;30.26;78.09;100546.72;5057973;28;66289;-42
2023/07/24 10:48:52;;;;;;;9.02;5.28;;;;;;;29.65;77.85;100450.13;5057750;28;70425;-41
2023/07/24 10:51:23;;;;;;;8.52;4.68;;;;;;;30.35;77.75;100563.47;5059354;28;65809;-42
2023/07/24 10:53:55;;;;;;;5.40;4.90;;;;;;;30.25;78.20;100559.38;5057351;28;70320;-42
2023/07/24 10:56:26;;;;;;;7.63;5.10;;;;;;;30.22;79.30;100551.72;5057840;28;66828;-40
2023/07/24 10:59:06;;;;;;;11.75;5.07;;;;;;;30.32;79.40;100590.97;5060011;28;70134;-41
2023/07/24 11:01:39;;;;;;;7.55;5.00;;;;;;;30.19;78.68;100554.84;5061519;28;67953;-42
2023/07/24 11:04:12;;;;;;;8.07;5.57;;;;;;;30.37;77.91;100572.16;5060503;28;69647;-40
2023/07/24 11:06:44;;;;;;;5.95;4.78;;;;;;;30.15;78.79;100564.47;5062251;28;67321;-45
2023/07/24 11:09:15;;;;;;;8.52;5.38;;;;;;;30.49;75.95;100586.63;5057493;28;69668;-42
2023/07/24 11:11:47;;;;;;;6.40;4.43;;;;;;;30.58;75.79;100585.28;5060698;28;66317;-42
2023/07/24 11:14:19;;;;;;;6.05;3.78;;;;;;;30.65;75.02;100591.44;5061478;28;69422;-41
2023/07/24 11:16:50;;;;;;;9.45;4.55;;;;;;;30.69;74.74;100603.47;5055287;28;66315;-42
2023/07/24 11:19:25;;;;;;;5.93;4.32;;;;;;;30.73;74.92;100604.69;5056753;28;70164;-41
2023/07/24 11:21:58;;;;;;;5.05;4.50;;;;;;;30.75;74.21;100612.56;5046991;28;66209;-40
2023/07/24 11:24:29;;;;;;;4.35;3.88;;;;;;;30.80;74.35;100614.63;5059306;28;70839;-42
2023/07/24 11:27:08;;;;;;;6.43;4.35;;;;;;;30.80;74.60;100622.75;5057145;28;65728;-40
2023/07/24 11:29:40;;;;;;;7.85;5.00;;;;;;;30.69;74.25;100599.94;5052383;28;69942;-41
2023/07/24 11:32:11;;;;;;;5.50;4.38;;;;;;;30.83;74.12;100625.03;5053155;28;66356;-40
2023/07/24 11:34:43;;;;;;;6.20;4.10;;;;;;;30.84;74.16;100632.94;5042685;28;70931;-40
2023/07/24 11:37:16;;;;;;;8.90;4.88;;;;;;;30.86;74.18;100629.97;5054243;28;65545;-42
2023/07/24 11:39:58;;;;;;;6.75;4.82;;;;;;;29.79;74.29;100463.28;5056655;28;70450;-40
2023/07/24 11:42:30;;;;;;;6.53;4.45;;;;;;;30.88;73.84;100628.69;5056339;28;65508;-40
2023/07/24 11:45:02;;;;;;;4.82;3.78;;;;;;;30.85;73.66;100637.28;5054808;28;70425;-41
2023/07/24 11:47:49;;;;;;;4.65;4.25;;;;;;;30.28;74.21;100548.13;5058805;28;66406;-41
2023/07/24 11:50:22;;;;;;;6.25;4.93;;;;;;;30.87;73.79;100642.44;5054984;28;70485;-41
2023/07/24 11:52:54;;;;;;;6.40;4.57;;;;;;;30.90;73.69;100647.44;5057410;28;65581;-41